sensor_id;sensor_type;location;lat;lon;timestamp;P1;P2;P0
62547;PMS7003;48602;45.192;5.722;2022-11-04T00:01:31;0.50;0.00;0.00
62547;PMS7003;48602;45.192;5.722;2022-11-04T00:03:57;0.00;0.00;0.00
62547;PMS7003;48602;45.192;5.722;2022-11-04T00:06:22;0.00;0.00;0.00
62547;PMS7003;48602;45.192;5.722;2022-11-04T00:08:49;1.00;0.00;0.00
62547;PMS7003;48602;45.192;5.722;2022-11-04T00:11:16;0.00;0.00;0.00
62547;PMS7003;48602;45.192;5.722;2022-11-04T00:14:00;0.00;0.00;0.00
62547;PMS7003;48602;45.192;5.722;2022-11-04T00:16:25;0.00;0.00;0.00
62547;PMS7003;48602;45.192;5.722;2022-11-04T00:19:10;2.00;0.00;0.00
62547;PMS7003;48602;45.192;5.722;2022-11-04T00:21:35;0.00;0.00;0.00
62547;PMS7003;48602;45.192;5.722;2022-11-04T00:24:19;0.20;0.00;0.00
62547;PMS7003;48602;45.192;5.722;2022-11-04T00:27:14;1.00;0.00;0.00
62547;PMS7003;48602;45.192;5.722;2022-11-04T00:30:00;0.00;0.00;0.00
62547;PMS7003;48602;45.192;5.722;2022-11-04T00:32:26;0.00;0.00;0.00
62547;PMS7003;48602;45.192;5.722;2022-11-04T00:35:10;0.00;0.00;0.00
62547;PMS7003;48602;45.192;5.722;2022-11-04T00:37:37;0.00;0.00;0.00
62547;PMS7003;48602;45.192;5.722;2022-11-04T00:40:04;1.25;0.00;0.00
62547;PMS7003;48602;45.192;5.722;2022-11-04T00:42:31;0.00;0.00;0.00
62547;PMS7003;48602;45.192;5.722;2022-11-04T00:44:56;0.00;0.00;0.00
62547;PMS7003;48602;45.192;5.722;2022-11-04T00:47:21;1.00;0.00;0.00
62547;PMS7003;48602;45.192;5.722;2022-11-04T00:49:47;0.75;0.00;0.00
62547;PMS7003;48602;45.192;5.722;2022-11-04T00:52:12;0.00;0.00;0.00
62547;PMS7003;48602;45.192;5.722;2022-11-04T00:54:41;1.20;0.20;0.20
62547;PMS7003;48602;45.192;5.722;2022-11-04T00:57:10;0.00;0.00;0.00
62547;PMS7003;48602;45.192;5.722;2022-11-04T00:59:36;0.00;0.00;0.00
62547;PMS7003;48602;45.192;5.722;2022-11-04T01:02:02;0.75;0.75;0.00
62547;PMS7003;48602;45.192;5.722;2022-11-04T01:04:28;0.00;0.00;0.00
62547;PMS7003;48602;45.192;5.722;2022-11-04T01:06:53;0.00;0.00;0.00
62547;PMS7003;48602;45.192;5.722;2022-11-04T01:09:19;0.00;0.00;0.00
62547;PMS7003;48602;45.192;5.722;2022-11-04T01:11:44;0.25;0.25;0.00
62547;PMS7003;48602;45.192;5.722;2022-11-04T01:14:10;0.00;0.00;0.00
62547;PMS7003;48602;45.192;5.722;2022-11-04T01:16:36;0.25;0.00;0.00
62547;PMS7003;48602;45.192;5.722;2022-11-04T01:19:02;0.00;0.00;0.00
62547;PMS7003;48602;45.192;5.722;2022-11-04T01:21:28;0.00;0.00;0.00
62547;PMS7003;48602;45.192;5.722;2022-11-04T01:23:54;0.00;0.00;0.00
62547;PMS7003;48602;45.192;5.722;2022-11-04T01:26:21;1.00;0.00;0.00
62547;PMS7003;48602;45.192;5.722;2022-11-04T01:28:48;0.00;0.00;0.00
62547;PMS7003;48602;45.192;5.722;2022-11-04T01:31:16;0.00;0.00;0.00
62547;PMS7003;48602;45.192;5.722;2022-11-04T01:33:47;0.00;0.00;0.00
62547;PMS7003;48602;45.192;5.722;2022-11-04T01:36:14;0.00;0.00;0.00
62547;PMS7003;48602;45.192;5.722;2022-11-04T01:38:39;0.00;0.00;0.00
62547;PMS7003;48602;45.192;5.722;2022-11-04T01:41:05;0.00;0.00;0.00
62547;PMS7003;48602;45.192;5.722;2022-11-04T01:46:09;0.00;0.00;0.00
62547;PMS7003;48602;45.192;5.722;2022-11-04T01:48:45;0.00;0.00;0.00
62547;PMS7003;48602;45.192;5.722;2022-11-04T01:51:11;0.00;0.00;0.00
62547;PMS7003;48602;45.192;5.722;2022-11-04T01:53:38;0.00;0.00;0.00
62547;PMS7003;48602;45.192;5.722;2022-11-04T01:56:06;0.00;0.00;0.00
62547;PMS7003;48602;45.192;5.722;2022-11-04T01:58:36;0.00;0.00;0.00
62547;PMS7003;48602;45.192;5.722;2022-11-04T02:01:05;1.00;1.00;0.25
62547;PMS7003;48602;45.192;5.722;2022-11-04T02:03:36;0.00;0.00;0.00
62547;PMS7003;48602;45.192;5.722;2022-11-04T02:06:04;3.00;2.00;1.00
62547;PMS7003;48602;45.192;5.722;2022-11-04T02:08:31;1.25;1.25;1.00
62547;PMS7003;48602;45.192;5.722;2022-11-04T02:10:59;1.00;1.00;1.00
62547;PMS7003;48602;45.192;5.722;2022-11-04T02:13:26;0.00;0.00;0.00
62547;PMS7003;48602;45.192;5.722;2022-11-04T02:18:21;1.00;0.00;0.00
62547;PMS7003;48602;45.192;5.722;2022-11-04T02:23:51;1.00;0.00;0.00
62547;PMS7003;48602;45.192;5.722;2022-11-04T02:31:52;2.00;1.00;1.00
62547;PMS7003;48602;45.192;5.722;2022-11-04T02:34:26;3.00;2.00;2.00
62547;PMS7003;48602;45.192;5.722;2022-11-04T02:42:38;1.75;1.75;1.50
62547;PMS7003;48602;45.192;5.722;2022-11-04T02:47:49;1.00;1.00;1.00
62547;PMS7003;48602;45.192;5.722;2022-11-04T02:53:00;0.00;0.00;0.00
62547;PMS7003;48602;45.192;5.722;2022-11-04T02:55:37;1.60;0.00;0.00
62547;PMS7003;48602;45.192;5.722;2022-11-04T02:58:13;1.50;0.00;0.00
62547;PMS7003;48602;45.192;5.722;2022-11-04T03:00:44;0.00;0.00;0.00
62547;PMS7003;48602;45.192;5.722;2022-11-04T03:03:13;1.00;1.00;0.50
62547;PMS7003;48602;45.192;5.722;2022-11-04T03:05:44;0.80;0.80;0.80
62547;PMS7003;48602;45.192;5.722;2022-11-04T03:08:18;0.50;0.50;0.50
62547;PMS7003;48602;45.192;5.722;2022-11-04T03:10:55;1.00;1.00;0.50
62547;PMS7003;48602;45.192;5.722;2022-11-04T03:13:36;2.00;1.00;1.00
62547;PMS7003;48602;45.192;5.722;2022-11-04T03:16:09;2.50;1.00;0.00
62547;PMS7003;48602;45.192;5.722;2022-11-04T03:19:01;2.25;1.00;1.00
62547;PMS7003;48602;45.192;5.722;2022-11-04T03:21:50;0.75;0.75;0.75
62547;PMS7003;48602;45.192;5.722;2022-11-04T03:24:20;1.25;0.75;0.75
62547;PMS7003;48602;45.192;5.722;2022-11-04T03:26:48;1.00;1.00;1.00
62547;PMS7003;48602;45.192;5.722;2022-11-04T03:29:25;1.50;0.50;0.00
62547;PMS7003;48602;45.192;5.722;2022-11-04T03:34:33;2.00;1.50;1.00
62547;PMS7003;48602;45.192;5.722;2022-11-04T03:36:59;2.00;2.00;2.00
62547;PMS7003;48602;45.192;5.722;2022-11-04T03:39:24;1.25;1.00;1.00
62547;PMS7003;48602;45.192;5.722;2022-11-04T03:41:51;1.00;1.00;1.00
62547;PMS7003;48602;45.192;5.722;2022-11-04T03:44:20;0.25;0.25;0.25
62547;PMS7003;48602;45.192;5.722;2022-11-04T03:46:47;1.00;1.00;1.00
62547;PMS7003;48602;45.192;5.722;2022-11-04T03:49:12;2.50;2.00;1.50
62547;PMS7003;48602;45.192;5.722;2022-11-04T03:51:39;5.00;1.75;1.75
62547;PMS7003;48602;45.192;5.722;2022-11-04T03:54:04;4.25;2.00;2.00
62547;PMS7003;48602;45.192;5.722;2022-11-04T03:59:35;3.25;2.00;2.00
62547;PMS7003;48602;45.192;5.722;2022-11-04T04:02:13;2.25;2.25;2.00
62547;PMS7003;48602;45.192;5.722;2022-11-04T04:04:51;2.00;2.00;1.00
62547;PMS7003;48602;45.192;5.722;2022-11-04T04:07:46;2.00;1.25;1.00
62547;PMS7003;48602;45.192;5.722;2022-11-04T04:10:18;1.00;1.00;1.00
62547;PMS7003;48602;45.192;5.722;2022-11-04T04:13:13;1.00;1.00;1.00
62547;PMS7003;48602;45.192;5.722;2022-11-04T04:15:51;2.75;1.00;1.00
62547;PMS7003;48602;45.192;5.722;2022-11-04T04:18:42;1.75;1.75;1.50
62547;PMS7003;48602;45.192;5.722;2022-11-04T04:21:16;2.75;2.00;2.00
62547;PMS7003;48602;45.192;5.722;2022-11-04T04:23:45;2.50;2.50;2.00
62547;PMS7003;48602;45.192;5.722;2022-11-04T04:26:33;2.00;2.00;2.00
62547;PMS7003;48602;45.192;5.722;2022-11-04T04:29:22;2.00;1.00;1.00
62547;PMS7003;48602;45.192;5.722;2022-11-04T04:31:49;3.00;1.25;1.25
62547;PMS7003;48602;45.192;5.722;2022-11-04T04:34:28;3.00;3.00;2.75
62547;PMS7003;48602;45.192;5.722;2022-11-04T04:39:25;6.75;2.25;2.00
62547;PMS7003;48602;45.192;5.722;2022-11-04T04:42:14;3.25;2.00;2.00
62547;PMS7003;48602;45.192;5.722;2022-11-04T04:45:00;3.50;3.50;3.00
62547;PMS7003;48602;45.192;5.722;2022-11-04T04:47:51;3.00;3.00;3.00
62547;PMS7003;48602;45.192;5.722;2022-11-04T04:50:16;3.00;2.00;1.50
62547;PMS7003;48602;45.192;5.722;2022-11-04T04:52:45;3.00;3.00;2.00
62547;PMS7003;48602;45.192;5.722;2022-11-04T04:55:13;2.00;2.00;1.75
62547;PMS7003;48602;45.192;5.722;2022-11-04T04:57:39;3.25;3.00;3.00
62547;PMS7003;48602;45.192;5.722;2022-11-04T05:00:05;2.50;2.50;2.00
62547;PMS7003;48602;45.192;5.722;2022-11-04T05:02:33;3.25;2.75;2.00
62547;PMS7003;48602;45.192;5.722;2022-11-04T05:04:58;2.25;2.25;1.25
62547;PMS7003;48602;45.192;5.722;2022-11-04T05:07:25;3.00;3.00;2.75
62547;PMS7003;48602;45.192;5.722;2022-11-04T05:09:51;2.00;2.00;1.00
62547;PMS7003;48602;45.192;5.722;2022-11-04T05:12:16;2.00;2.00;2.00
62547;PMS7003;48602;45.192;5.722;2022-11-04T05:14:42;3.75;2.75;2.25
62547;PMS7003;48602;45.192;5.722;2022-11-04T05:17:07;2.00;2.00;2.00
62547;PMS7003;48602;45.192;5.722;2022-11-04T05:19:33;2.50;1.25;1.00
62547;PMS7003;48602;45.192;5.722;2022-11-04T05:21:59;1.25;1.25;1.25
62547;PMS7003;48602;45.192;5.722;2022-11-04T05:24:24;2.00;2.00;1.75
62547;PMS7003;48602;45.192;5.722;2022-11-04T05:26:49;3.00;1.25;1.00
62547;PMS7003;48602;45.192;5.722;2022-11-04T05:29:15;2.00;2.00;1.50
62547;PMS7003;48602;45.192;5.722;2022-11-04T05:31:41;1.75;1.00;1.00
62547;PMS7003;48602;45.192;5.722;2022-11-04T05:34:09;2.00;1.50;1.00
62547;PMS7003;48602;45.192;5.722;2022-11-04T05:36:35;3.25;2.00;2.00
62547;PMS7003;48602;45.192;5.722;2022-11-04T05:39:01;1.75;1.75;1.00
62547;PMS7003;48602;45.192;5.722;2022-11-04T05:41:27;3.00;3.00;2.50
62547;PMS7003;48602;45.192;5.722;2022-11-04T05:43:53;2.50;2.50;2.25
62547;PMS7003;48602;45.192;5.722;2022-11-04T05:46:23;3.00;3.00;3.00
62547;PMS7003;48602;45.192;5.722;2022-11-04T05:48:49;5.00;5.00;4.00
62547;PMS7003;48602;45.192;5.722;2022-11-04T05:51:15;2.50;2.00;2.00
62547;PMS7003;48602;45.192;5.722;2022-11-04T05:53:43;2.25;2.25;2.00
62547;PMS7003;48602;45.192;5.722;2022-11-04T05:56:08;3.00;2.75;2.00
62547;PMS7003;48602;45.192;5.722;2022-11-04T05:58:34;3.00;3.00;3.00
62547;PMS7003;48602;45.192;5.722;2022-11-04T06:03:38;2.75;2.75;2.00
62547;PMS7003;48602;45.192;5.722;2022-11-04T06:06:03;1.75;1.75;1.75
62547;PMS7003;48602;45.192;5.722;2022-11-04T06:08:29;2.00;2.00;2.00
62547;PMS7003;48602;45.192;5.722;2022-11-04T06:10:55;1.50;1.50;1.50
62547;PMS7003;48602;45.192;5.722;2022-11-04T06:13:21;2.00;2.00;2.00
62547;PMS7003;48602;45.192;5.722;2022-11-04T06:15:46;1.00;1.00;0.00
62547;PMS7003;48602;45.192;5.722;2022-11-04T06:18:12;1.00;1.00;1.00
62547;PMS7003;48602;45.192;5.722;2022-11-04T06:20:37;1.00;1.00;1.00
62547;PMS7003;48602;45.192;5.722;2022-11-04T06:23:02;2.00;2.00;1.50
62547;PMS7003;48602;45.192;5.722;2022-11-04T06:25:28;0.00;0.00;0.00
62547;PMS7003;48602;45.192;5.722;2022-11-04T06:27:53;2.75;2.00;1.50
62547;PMS7003;48602;45.192;5.722;2022-11-04T06:30:19;2.00;2.00;2.00
62547;PMS7003;48602;45.192;5.722;2022-11-04T06:32:45;3.25;2.50;2.25
62547;PMS7003;48602;45.192;5.722;2022-11-04T06:35:11;3.00;3.00;2.75
62547;PMS7003;48602;45.192;5.722;2022-11-04T06:37:37;5.25;4.00;4.00
62547;PMS7003;48602;45.192;5.722;2022-11-04T06:40:02;3.00;3.00;3.00
62547;PMS7003;48602;45.192;5.722;2022-11-04T06:42:28;3.00;3.00;3.00
62547;PMS7003;48602;45.192;5.722;2022-11-04T06:44:54;3.50;3.00;3.00
62547;PMS7003;48602;45.192;5.722;2022-11-04T06:47:19;3.25;3.00;2.25
62547;PMS7003;48602;45.192;5.722;2022-11-04T06:49:44;2.00;2.00;1.25
62547;PMS7003;48602;45.192;5.722;2022-11-04T06:52:10;4.00;3.00;3.00
62547;PMS7003;48602;45.192;5.722;2022-11-04T06:54:35;2.50;2.50;2.50
62547;PMS7003;48602;45.192;5.722;2022-11-04T06:57:00;3.75;3.75;3.00
62547;PMS7003;48602;45.192;5.722;2022-11-04T06:59:26;5.00;4.00;3.00
62547;PMS7003;48602;45.192;5.722;2022-11-04T07:01:52;4.75;3.75;3.00
62547;PMS7003;48602;45.192;5.722;2022-11-04T07:04:17;4.75;3.00;2.00
62547;PMS7003;48602;45.192;5.722;2022-11-04T07:06:43;3.00;3.00;3.00
62547;PMS7003;48602;45.192;5.722;2022-11-04T07:09:09;6.25;6.25;5.75
62547;PMS7003;48602;45.192;5.722;2022-11-04T07:11:36;3.50;3.50;3.00
62547;PMS7003;48602;45.192;5.722;2022-11-04T07:14:02;3.00;3.00;3.00
62547;PMS7003;48602;45.192;5.722;2022-11-04T07:16:27;4.25;4.25;3.00
62547;PMS7003;48602;45.192;5.722;2022-11-04T07:18:53;5.75;4.75;4.50
62547;PMS7003;48602;45.192;5.722;2022-11-04T07:21:19;4.25;3.00;3.00
62547;PMS7003;48602;45.192;5.722;2022-11-04T07:23:44;3.25;3.25;2.25
62547;PMS7003;48602;45.192;5.722;2022-11-04T07:26:10;1.50;1.50;1.25
62547;PMS7003;48602;45.192;5.722;2022-11-04T07:28:37;4.00;2.00;2.00
62547;PMS7003;48602;45.192;5.722;2022-11-04T07:31:03;6.50;5.00;5.00
62547;PMS7003;48602;45.192;5.722;2022-11-04T07:33:30;2.75;2.75;2.00
62547;PMS7003;48602;45.192;5.722;2022-11-04T07:35:57;2.50;2.00;2.00
62547;PMS7003;48602;45.192;5.722;2022-11-04T07:38:26;1.00;1.00;1.00
62547;PMS7003;48602;45.192;5.722;2022-11-04T07:40:52;1.00;1.00;1.00
62547;PMS7003;48602;45.192;5.722;2022-11-04T07:43:17;4.00;3.00;1.25
62547;PMS7003;48602;45.192;5.722;2022-11-04T07:45:42;7.75;6.00;5.75
62547;PMS7003;48602;45.192;5.722;2022-11-04T07:48:08;1.00;1.00;1.00
62547;PMS7003;48602;45.192;5.722;2022-11-04T07:50:33;2.00;2.00;1.00
62547;PMS7003;48602;45.192;5.722;2022-11-04T07:53:01;1.75;1.75;1.25
62547;PMS7003;48602;45.192;5.722;2022-11-04T07:55:27;2.00;2.00;2.00
62547;PMS7003;48602;45.192;5.722;2022-11-04T07:57:53;2.00;2.00;2.00
62547;PMS7003;48602;45.192;5.722;2022-11-04T08:00:19;2.00;2.00;1.00
62547;PMS7003;48602;45.192;5.722;2022-11-04T08:02:45;1.00;1.00;1.00
62547;PMS7003;48602;45.192;5.722;2022-11-04T08:05:11;1.75;1.75;1.50
62547;PMS7003;48602;45.192;5.722;2022-11-04T08:07:37;1.50;1.00;1.00
62547;PMS7003;48602;45.192;5.722;2022-11-04T08:10:02;1.50;1.00;1.00
62547;PMS7003;48602;45.192;5.722;2022-11-04T08:12:28;9.25;9.25;7.00
62547;PMS7003;48602;45.192;5.722;2022-11-04T08:14:56;1.60;1.60;1.60
62547;PMS7003;48602;45.192;5.722;2022-11-04T08:17:21;3.00;3.00;2.75
62547;PMS7003;48602;45.192;5.722;2022-11-04T08:19:47;5.00;4.25;4.00
62547;PMS7003;48602;45.192;5.722;2022-11-04T08:22:13;6.50;6.00;4.50
62547;PMS7003;48602;45.192;5.722;2022-11-04T08:24:38;5.25;5.25;5.00
62547;PMS7003;48602;45.192;5.722;2022-11-04T08:27:04;6.25;4.50;4.00
62547;PMS7003;48602;45.192;5.722;2022-11-04T08:29:32;8.25;6.50;5.75
62547;PMS7003;48602;45.192;5.722;2022-11-04T08:31:58;4.75;4.75;4.25
62547;PMS7003;48602;45.192;5.722;2022-11-04T08:34:23;7.00;7.00;5.25
62547;PMS7003;48602;45.192;5.722;2022-11-04T08:36:48;5.50;5.00;3.00
62547;PMS7003;48602;45.192;5.722;2022-11-04T08:39:17;5.25;4.00;3.00
62547;PMS7003;48602;45.192;5.722;2022-11-04T08:41:43;5.75;5.25;4.25
62547;PMS7003;48602;45.192;5.722;2022-11-04T08:44:10;6.00;6.00;5.00
62547;PMS7003;48602;45.192;5.722;2022-11-04T08:46:37;5.75;5.75;5.00
62547;PMS7003;48602;45.192;5.722;2022-11-04T08:49:06;5.25;5.25;5.00
62547;PMS7003;48602;45.192;5.722;2022-11-04T08:51:32;8.25;8.25;7.00
62547;PMS7003;48602;45.192;5.722;2022-11-04T08:53:59;22.50;18.25;15.25
62547;PMS7003;48602;45.192;5.722;2022-11-04T08:56:26;25.00;18.50;14.50
62547;PMS7003;48602;45.192;5.722;2022-11-04T08:58:54;6.50;6.50;6.00
62547;PMS7003;48602;45.192;5.722;2022-11-04T09:01:20;7.00;7.00;5.75
62547;PMS7003;48602;45.192;5.722;2022-11-04T09:03:46;13.00;9.75;9.00
62547;PMS7003;48602;45.192;5.722;2022-11-04T09:06:14;9.00;8.00;7.00
62547;PMS7003;48602;45.192;5.722;2022-11-04T09:08:43;13.75;10.25;7.75
62547;PMS7003;48602;45.192;5.722;2022-11-04T09:11:10;11.00;10.50;8.50
62547;PMS7003;48602;45.192;5.722;2022-11-04T09:13:37;8.25;7.00;6.00
62547;PMS7003;48602;45.192;5.722;2022-11-04T09:18:28;8.00;7.25;7.00
62547;PMS7003;48602;45.192;5.722;2022-11-04T09:20:54;6.00;6.00;6.00
62547;PMS7003;48602;45.192;5.722;2022-11-04T09:23:19;8.25;7.50;7.00
62547;PMS7003;48602;45.192;5.722;2022-11-04T09:25:45;6.25;6.25;4.75
62547;PMS7003;48602;45.192;5.722;2022-11-04T09:28:10;5.50;5.50;4.25
62547;PMS7003;48602;45.192;5.722;2022-11-04T09:30:36;7.00;5.75;4.75
62547;PMS7003;48602;45.192;5.722;2022-11-04T09:33:02;6.00;6.00;5.00
62547;PMS7003;48602;45.192;5.722;2022-11-04T09:35:28;9.00;7.25;6.00
62547;PMS7003;48602;45.192;5.722;2022-11-04T09:37:53;8.25;6.25;4.75
62547;PMS7003;48602;45.192;5.722;2022-11-04T09:40:20;4.75;4.00;3.00
62547;PMS7003;48602;45.192;5.722;2022-11-04T09:45:58;2.25;2.25;2.25
62547;PMS7003;48602;45.192;5.722;2022-11-04T09:50:56;5.00;4.75;4.00
62547;PMS7003;48602;45.192;5.722;2022-11-04T09:58:40;4.75;4.00;3.50
62547;PMS7003;48602;45.192;5.722;2022-11-04T10:07:17;4.75;4.75;3.50
62547;PMS7003;48602;45.192;5.722;2022-11-04T10:12:57;6.75;3.75;3.25
62547;PMS7003;48602;45.192;5.722;2022-11-04T10:29:25;4.50;4.50;4.00
62547;PMS7003;48602;45.192;5.722;2022-11-04T10:31:53;10.00;8.50;7.00
62547;PMS7003;48602;45.192;5.722;2022-11-04T10:34:30;6.50;4.25;4.00
62547;PMS7003;48602;45.192;5.722;2022-11-04T10:37:00;2.00;2.00;2.00
62547;PMS7003;48602;45.192;5.722;2022-11-04T10:39:31;3.75;3.75;3.00
62547;PMS7003;48602;45.192;5.722;2022-11-04T10:42:02;6.00;4.00;3.25
62547;PMS7003;48602;45.192;5.722;2022-11-04T10:44:30;6.00;3.50;3.00
62547;PMS7003;48602;45.192;5.722;2022-11-04T10:52:41;7.00;6.50;5.50
62547;PMS7003;48602;45.192;5.722;2022-11-04T10:57:56;4.00;4.00;4.00
62547;PMS7003;48602;45.192;5.722;2022-11-04T11:00:36;3.25;3.25;3.00
62547;PMS7003;48602;45.192;5.722;2022-11-04T11:03:20;3.50;3.25;3.00
62547;PMS7003;48602;45.192;5.722;2022-11-04T11:05:48;4.00;3.00;2.75
62547;PMS7003;48602;45.192;5.722;2022-11-04T11:08:29;2.00;2.00;0.50
62547;PMS7003;48602;45.192;5.722;2022-11-04T11:10:56;3.50;2.00;1.50
62547;PMS7003;48602;45.192;5.722;2022-11-04T11:13:24;1.00;1.00;0.25
62547;PMS7003;48602;45.192;5.722;2022-11-04T11:16:06;2.00;1.75;1.75
62547;PMS7003;48602;45.192;5.722;2022-11-04T11:21:46;2.50;1.00;1.00
62547;PMS7003;48602;45.192;5.722;2022-11-04T11:26:49;2.00;1.00;1.00
62547;PMS7003;48602;45.192;5.722;2022-11-04T11:29:18;2.00;2.00;2.00
62547;PMS7003;48602;45.192;5.722;2022-11-04T11:31:47;5.50;4.00;3.00
62547;PMS7003;48602;45.192;5.722;2022-11-04T11:34:32;1.00;1.00;1.00
62547;PMS7003;48602;45.192;5.722;2022-11-04T11:37:02;3.00;3.00;2.00
62547;PMS7003;48602;45.192;5.722;2022-11-04T11:39:30;1.00;1.00;1.00
62547;PMS7003;48602;45.192;5.722;2022-11-04T11:44:51;4.75;4.25;4.00
62547;PMS7003;48602;45.192;5.722;2022-11-04T11:49:45;9.00;7.00;5.25
62547;PMS7003;48602;45.192;5.722;2022-11-04T11:52:34;4.75;4.50;4.00
62547;PMS7003;48602;45.192;5.722;2022-11-04T11:55:05;3.50;2.50;2.50
62547;PMS7003;48602;45.192;5.722;2022-11-04T12:03:41;5.00;4.00;3.00
62547;PMS7003;48602;45.192;5.722;2022-11-04T12:20:05;3.00;2.00;2.00
62547;PMS7003;48602;45.192;5.722;2022-11-04T12:27:44;5.50;3.50;2.75
62547;PMS7003;48602;45.192;5.722;2022-11-04T12:30:18;5.00;3.00;2.00
62547;PMS7003;48602;45.192;5.722;2022-11-04T12:35:59;1.75;1.00;0.00
62547;PMS7003;48602;45.192;5.722;2022-11-04T12:39:09;1.00;1.00;0.75
62547;PMS7003;48602;45.192;5.722;2022-11-04T12:42:19;0.50;0.50;0.50
62547;PMS7003;48602;45.192;5.722;2022-11-04T12:44:52;1.25;1.00;1.00
62547;PMS7003;48602;45.192;5.722;2022-11-04T12:47:38;0.75;0.75;0.00
62547;PMS7003;48602;45.192;5.722;2022-11-04T12:50:20;1.00;1.00;1.00
62547;PMS7003;48602;45.192;5.722;2022-11-04T13:01:03;0.00;0.00;0.00
62547;PMS7003;48602;45.192;5.722;2022-11-04T13:03:56;3.50;1.00;1.00
62547;PMS7003;48602;45.192;5.722;2022-11-04T13:06:32;0.60;0.60;0.20
62547;PMS7003;48602;45.192;5.722;2022-11-04T13:09:05;2.00;2.00;1.50
62547;PMS7003;48602;45.192;5.722;2022-11-04T13:16:43;2.80;2.80;2.20
62547;PMS7003;48602;45.192;5.722;2022-11-04T13:19:28;6.50;5.00;4.00
62547;PMS7003;48602;45.192;5.722;2022-11-04T13:22:00;3.25;3.25;3.25
62547;PMS7003;48602;45.192;5.722;2022-11-04T13:24:31;3.00;2.50;2.00
62547;PMS7003;48602;45.192;5.722;2022-11-04T13:27:02;2.00;2.00;1.80
62547;PMS7003;48602;45.192;5.722;2022-11-04T13:29:37;1.00;1.00;1.00
62547;PMS7003;48602;45.192;5.722;2022-11-04T13:32:04;2.00;1.00;1.00
62547;PMS7003;48602;45.192;5.722;2022-11-04T13:37:25;0.20;0.20;0.00
62547;PMS7003;48602;45.192;5.722;2022-11-04T13:45:13;0.00;0.00;0.00
62547;PMS7003;48602;45.192;5.722;2022-11-04T13:50:34;0.40;0.40;0.20
62547;PMS7003;48602;45.192;5.722;2022-11-04T13:53:03;2.00;2.00;2.00
62547;PMS7003;48602;45.192;5.722;2022-11-04T13:55:33;2.75;2.75;2.00
62547;PMS7003;48602;45.192;5.722;2022-11-04T13:58:03;2.25;2.25;2.00
62547;PMS7003;48602;45.192;5.722;2022-11-04T14:00:34;4.00;3.25;2.00
62547;PMS7003;48602;45.192;5.722;2022-11-04T14:08:23;2.00;2.00;2.00
62547;PMS7003;48602;45.192;5.722;2022-11-04T14:18:41;0.00;0.00;0.00
62547;PMS7003;48602;45.192;5.722;2022-11-04T14:21:09;0.00;0.00;0.00
62547;PMS7003;48602;45.192;5.722;2022-11-04T14:23:52;1.00;0.00;0.00
62547;PMS7003;48602;45.192;5.722;2022-11-04T14:26:24;1.00;0.00;0.00
62547;PMS7003;48602;45.192;5.722;2022-11-04T14:29:05;2.00;0.00;0.00
62547;PMS7003;48602;45.192;5.722;2022-11-04T14:34:04;0.75;0.75;0.75
62547;PMS7003;48602;45.192;5.722;2022-11-04T14:46:42;3.00;3.00;3.00
62547;PMS7003;48602;45.192;5.722;2022-11-04T14:52:12;10.00;9.75;8.25
62547;PMS7003;48602;45.192;5.722;2022-11-04T14:54:43;4.75;4.50;4.00
62547;PMS7003;48602;45.192;5.722;2022-11-04T14:57:16;1.75;1.25;1.00
62547;PMS7003;48602;45.192;5.722;2022-11-04T14:59:46;3.20;3.00;3.00
62547;PMS7003;48602;45.192;5.722;2022-11-04T15:02:14;3.00;2.00;2.00
62547;PMS7003;48602;45.192;5.722;2022-11-04T15:04:49;5.00;5.00;3.75
62547;PMS7003;48602;45.192;5.722;2022-11-04T15:07:24;5.00;5.00;5.00
62547;PMS7003;48602;45.192;5.722;2022-11-04T15:09:55;6.20;4.60;4.60
62547;PMS7003;48602;45.192;5.722;2022-11-04T15:12:20;3.25;3.00;3.00
62547;PMS7003;48602;45.192;5.722;2022-11-04T15:18:07;3.00;3.00;3.00
62547;PMS7003;48602;45.192;5.722;2022-11-04T15:23:30;4.00;4.00;3.00
62547;PMS7003;48602;45.192;5.722;2022-11-04T15:25:59;3.00;3.00;2.00
62547;PMS7003;48602;45.192;5.722;2022-11-04T15:28:27;4.00;3.00;2.25
62547;PMS7003;48602;45.192;5.722;2022-11-04T15:33:22;3.50;2.50;2.25
62547;PMS7003;48602;45.192;5.722;2022-11-04T15:35:49;1.00;1.00;1.00
62547;PMS7003;48602;45.192;5.722;2022-11-04T15:38:16;0.00;0.00;0.00
62547;PMS7003;48602;45.192;5.722;2022-11-04T15:40:42;0.00;0.00;0.00
62547;PMS7003;48602;45.192;5.722;2022-11-04T15:43:09;0.00;0.00;0.00
62547;PMS7003;48602;45.192;5.722;2022-11-04T15:51:23;3.00;3.00;2.00
62547;PMS7003;48602;45.192;5.722;2022-11-04T15:56:22;3.00;1.75;1.75
62547;PMS7003;48602;45.192;5.722;2022-11-04T15:58:51;3.00;2.75;2.00
62547;PMS7003;48602;45.192;5.722;2022-11-04T16:01:18;2.00;2.00;2.00
62547;PMS7003;48602;45.192;5.722;2022-11-04T16:03:54;3.25;3.25;3.00
62547;PMS7003;48602;45.192;5.722;2022-11-04T16:06:40;5.75;5.25;4.25
62547;PMS7003;48602;45.192;5.722;2022-11-04T16:11:36;6.50;5.25;5.00
62547;PMS7003;48602;45.192;5.722;2022-11-04T16:14:20;3.00;3.00;2.75
62547;PMS7003;48602;45.192;5.722;2022-11-04T16:16:48;4.75;3.00;2.50
62547;PMS7003;48602;45.192;5.722;2022-11-04T16:19:16;2.00;2.00;2.00
62547;PMS7003;48602;45.192;5.722;2022-11-04T16:21:44;1.75;1.75;1.75
62547;PMS7003;48602;45.192;5.722;2022-11-04T16:26:54;1.00;1.00;0.50
62547;PMS7003;48602;45.192;5.722;2022-11-04T16:29:22;6.00;5.00;4.00
62547;PMS7003;48602;45.192;5.722;2022-11-04T16:32:04;4.75;4.50;4.00
62547;PMS7003;48602;45.192;5.722;2022-11-04T16:34:50;5.00;5.00;4.25
62547;PMS7003;48602;45.192;5.722;2022-11-04T16:37:17;7.00;6.50;6.00
62547;PMS7003;48602;45.192;5.722;2022-11-04T16:39:43;8.00;5.25;3.50
62547;PMS7003;48602;45.192;5.722;2022-11-04T16:42:10;5.00;5.00;5.00
62547;PMS7003;48602;45.192;5.722;2022-11-04T16:44:38;6.50;6.50;6.00
62547;PMS7003;48602;45.192;5.722;2022-11-04T16:47:04;6.00;6.00;5.00
62547;PMS7003;48602;45.192;5.722;2022-11-04T16:49:29;13.00;10.00;6.75
62547;PMS7003;48602;45.192;5.722;2022-11-04T16:52:00;6.75;6.75;5.75
62547;PMS7003;48602;45.192;5.722;2022-11-04T16:54:27;8.25;6.75;6.00
62547;PMS7003;48602;45.192;5.722;2022-11-04T16:56:53;12.50;10.50;8.00
62547;PMS7003;48602;45.192;5.722;2022-11-04T16:59:19;5.25;5.00;5.00
62547;PMS7003;48602;45.192;5.722;2022-11-04T17:01:45;7.75;6.00;5.25
62547;PMS7003;48602;45.192;5.722;2022-11-04T17:04:10;7.75;6.75;5.25
62547;PMS7003;48602;45.192;5.722;2022-11-04T17:06:36;13.00;7.75;7.00
62547;PMS7003;48602;45.192;5.722;2022-11-04T17:09:02;4.50;4.00;3.25
62547;PMS7003;48602;45.192;5.722;2022-11-04T17:11:31;3.00;2.50;2.25
62547;PMS7003;48602;45.192;5.722;2022-11-04T17:13:56;4.00;4.00;4.00
62547;PMS7003;48602;45.192;5.722;2022-11-04T17:16:22;4.00;4.00;4.00
62547;PMS7003;48602;45.192;5.722;2022-11-04T17:18:47;4.00;4.00;4.00
62547;PMS7003;48602;45.192;5.722;2022-11-04T17:21:13;4.50;4.50;4.00
62547;PMS7003;48602;45.192;5.722;2022-11-04T17:23:42;9.50;9.25;8.25
62547;PMS7003;48602;45.192;5.722;2022-11-04T17:26:09;9.50;9.00;7.00
62547;PMS7003;48602;45.192;5.722;2022-11-04T17:28:36;7.00;6.75;6.00
62547;PMS7003;48602;45.192;5.722;2022-11-04T17:31:01;5.75;5.75;5.00
62547;PMS7003;48602;45.192;5.722;2022-11-04T17:33:27;4.50;3.50;3.00
62547;PMS7003;48602;45.192;5.722;2022-11-04T17:35:53;4.25;4.00;4.00
62547;PMS7003;48602;45.192;5.722;2022-11-04T17:38:19;7.00;6.00;6.00
62547;PMS7003;48602;45.192;5.722;2022-11-04T17:40:45;6.75;6.75;5.00
62547;PMS7003;48602;45.192;5.722;2022-11-04T17:43:29;6.00;6.00;5.50
62547;PMS7003;48602;45.192;5.722;2022-11-04T17:46:14;9.25;7.50;6.50
62547;PMS7003;48602;45.192;5.722;2022-11-04T17:49:02;10.50;7.50;6.50
62547;PMS7003;48602;45.192;5.722;2022-11-04T17:51:31;12.75;12.00;8.50